sensor_id;sensor_type;location;lat;lon;timestamp;pressure;altitude;pressure_sealevel;temperature;humidity
70103;BME280;57470;50.034;15.256;2023-03-13T00:03:40;98926.13;;;7.54;96.77
70103;BME280;57470;50.034;15.256;2023-03-13T00:06:06;98921.31;;;7.47;96.88
70103;BME280;57470;50.034;15.256;2023-03-13T00:08:31;98926.34;;;7.51;97.15
70103;BME280;57470;50.034;15.256;2023-03-13T00:10:57;98924.75;;;7.62;96.50
70103;BME280;57470;50.034;15.256;2023-03-13T00:13:22;98924.41;;;7.53;96.28
70103;BME280;57470;50.034;15.256;2023-03-13T00:15:47;98935.94;;;7.52;97.00
70103;BME280;57470;50.034;15.256;2023-03-13T00:18:13;98931.22;;;7.16;97.68
70103;BME280;57470;50.034;15.256;2023-03-13T00:20:38;98933.22;;;7.13;98.85
70103;BME280;57470;50.034;15.256;2023-03-13T00:23:04;98935.94;;;7.52;97.93
70103;BME280;57470;50.034;15.256;2023-03-13T00:25:30;98929.06;;;7.50;97.48
70103;BME280;57470;50.034;15.256;2023-03-13T00:27:55;98935.59;;;7.44;98.08
70103;BME280;57470;50.034;15.256;2023-03-13T00:30:21;98928.16;;;7.64;97.55
70103;BME280;57470;50.034;15.256;2023-03-13T00:32:46;98925.09;;;7.70;96.86
70103;BME280;57470;50.034;15.256;2023-03-13T00:35:12;98926.63;;;7.74;97.23
70103;BME280;57470;50.034;15.256;2023-03-13T00:37:38;98922.94;;;7.76;96.93
70103;BME280;57470;50.034;15.256;2023-03-13T00:40:05;98923.88;;;7.75;96.63
70103;BME280;57470;50.034;15.256;2023-03-13T00:42:30;98921.75;;;7.80;96.11
70103;BME280;57470;50.034;15.256;2023-03-13T00:44:56;98921.84;;;7.79;96.35
70103;BME280;57470;50.034;15.256;2023-03-13T00:47:21;98913.97;;;7.91;95.76
70103;BME280;57470;50.034;15.256;2023-03-13T00:49:46;98915.84;;;7.77;95.74
70103;BME280;57470;50.034;15.256;2023-03-13T00:52:12;98915.00;;;7.76;96.42
70103;BME280;57470;50.034;15.256;2023-03-13T00:54:37;98915.63;;;7.80;96.24
70103;BME280;57470;50.034;15.256;2023-03-13T00:57:03;98906.72;;;7.81;95.68
70103;BME280;57470;50.034;15.256;2023-03-13T00:59:29;98906.34;;;8.00;95.47
70103;BME280;57470;50.034;15.256;2023-03-13T01:01:54;98897.03;;;8.07;94.92
70103;BME280;57470;50.034;15.256;2023-03-13T01:04:19;98904.69;;;8.11;94.06
70103;BME280;57470;50.034;15.256;2023-03-13T01:06:45;98904.47;;;8.14;93.85
70103;BME280;57470;50.034;15.256;2023-03-13T01:09:14;98911.88;;;8.09;93.72
70103;BME280;57470;50.034;15.256;2023-03-13T01:11:41;98908.41;;;8.21;93.76
70103;BME280;57470;50.034;15.256;2023-03-13T01:14:11;98907.25;;;8.25;92.76
70103;BME280;57470;50.034;15.256;2023-03-13T01:16:37;98903.50;;;8.15;93.54
70103;BME280;57470;50.034;15.256;2023-03-13T01:19:09;98901.75;;;7.76;95.84
70103;BME280;57470;50.034;15.256;2023-03-13T01:21:35;98896.38;;;7.78;95.71
70103;BME280;57470;50.034;15.256;2023-03-13T01:24:01;98899.78;;;7.93;95.30
70103;BME280;57470;50.034;15.256;2023-03-13T01:26:27;98889.59;;;7.86;95.67
70103;BME280;57470;50.034;15.256;2023-03-13T01:28:53;98891.66;;;8.08;95.06
70103;BME280;57470;50.034;15.256;2023-03-13T01:31:21;98896.75;;;8.11;95.15
70103;BME280;57470;50.034;15.256;2023-03-13T01:33:49;98897.50;;;8.13;94.36
70103;BME280;57470;50.034;15.256;2023-03-13T01:36:17;98894.28;;;8.08;94.72
70103;BME280;57470;50.034;15.256;2023-03-13T01:38:43;98898.22;;;8.15;94.08
70103;BME280;57470;50.034;15.256;2023-03-13T01:41:11;98888.38;;;8.17;93.68
70103;BME280;57470;50.034;15.256;2023-03-13T01:43:38;98892.81;;;8.17;93.67
70103;BME280;57470;50.034;15.256;2023-03-13T01:48:56;98892.19;;;8.13;93.81
70103;BME280;57470;50.034;15.256;2023-03-13T01:54:21;98880.97;;;8.22;93.45
70103;BME280;57470;50.034;15.256;2023-03-13T01:56:55;98880.69;;;8.40;92.43
70103;BME280;57470;50.034;15.256;2023-03-13T01:59:48;98876.03;;;7.78;94.30
70103;BME280;57470;50.034;15.256;2023-03-13T02:02:13;98882.75;;;8.09;94.22
70103;BME280;57470;50.034;15.256;2023-03-13T02:04:44;98881.75;;;7.98;93.88
70103;BME280;57470;50.034;15.256;2023-03-13T02:07:14;98879.44;;;7.93;94.09
70103;BME280;57470;50.034;15.256;2023-03-13T02:09:42;98874.81;;;8.09;93.31
70103;BME280;57470;50.034;15.256;2023-03-13T02:12:15;98873.38;;;7.78;95.19
70103;BME280;57470;50.034;15.256;2023-03-13T02:14:43;98868.66;;;7.96;94.33
70103;BME280;57470;50.034;15.256;2023-03-13T02:17:10;98864.63;;;8.03;93.77
70103;BME280;57470;50.034;15.256;2023-03-13T02:19:42;98856.22;;;7.84;94.00
70103;BME280;57470;50.034;15.256;2023-03-13T02:22:11;98856.56;;;7.92;93.66
70103;BME280;57470;50.034;15.256;2023-03-13T02:24:48;98856.66;;;7.78;94.27
70103;BME280;57470;50.034;15.256;2023-03-13T02:27:15;98849.66;;;7.77;93.47
70103;BME280;57470;50.034;15.256;2023-03-13T02:29:41;98849.22;;;7.43;96.08
70103;BME280;57470;50.034;15.256;2023-03-13T02:32:07;98847.88;;;7.77;94.05
70103;BME280;57470;50.034;15.256;2023-03-13T02:34:34;98846.47;;;7.45;94.28
70103;BME280;57470;50.034;15.256;2023-03-13T02:37:03;98849.63;;;7.37;94.45
70103;BME280;57470;50.034;15.256;2023-03-13T02:39:31;98837.19;;;7.25;96.29
70103;BME280;57470;50.034;15.256;2023-03-13T02:41:59;98845.78;;;7.29;96.30
70103;BME280;57470;50.034;15.256;2023-03-13T02:44:26;98852.44;;;7.22;95.81
70103;BME280;57470;50.034;15.256;2023-03-13T02:46:51;98852.38;;;7.36;95.69
70103;BME280;57470;50.034;15.256;2023-03-13T02:49:26;98849.03;;;7.46;94.49
70103;BME280;57470;50.034;15.256;2023-03-13T02:51:54;98856.44;;;7.41;93.49
70103;BME280;57470;50.034;15.256;2023-03-13T02:54:24;98864.63;;;7.24;94.88
70103;BME280;57470;50.034;15.256;2023-03-13T02:56:55;98856.38;;;7.29;94.47
70103;BME280;57470;50.034;15.256;2023-03-13T02:59:24;98868.31;;;7.22;95.12
70103;BME280;57470;50.034;15.256;2023-03-13T03:01:51;98862.66;;;7.13;95.18
70103;BME280;57470;50.034;15.256;2023-03-13T03:04:20;98864.22;;;7.30;94.64
70103;BME280;57470;50.034;15.256;2023-03-13T03:06:47;98865.84;;;7.19;94.76
70103;BME280;57470;50.034;15.256;2023-03-13T03:09:15;98866.00;;;7.03;95.85
70103;BME280;57470;50.034;15.256;2023-03-13T03:11:43;98863.56;;;7.27;95.82
70103;BME280;57470;50.034;15.256;2023-03-13T03:14:10;98865.47;;;7.51;95.41
70103;BME280;57470;50.034;15.256;2023-03-13T03:16:38;98848.84;;;7.49;94.86
70103;BME280;57470;50.034;15.256;2023-03-13T03:19:06;98853.56;;;7.44;95.78
70103;BME280;57470;50.034;15.256;2023-03-13T03:21:33;98858.59;;;7.62;94.89
70103;BME280;57470;50.034;15.256;2023-03-13T03:24:00;98848.78;;;7.64;94.56
70103;BME280;57470;50.034;15.256;2023-03-13T03:26:26;98856.28;;;7.57;95.53
70103;BME280;57470;50.034;15.256;2023-03-13T03:28:53;98853.53;;;7.71;94.62
70103;BME280;57470;50.034;15.256;2023-03-13T03:31:20;98848.91;;;7.87;93.86
70103;BME280;57470;50.034;15.256;2023-03-13T03:33:48;98853.16;;;7.90;93.93
70103;BME280;57470;50.034;15.256;2023-03-13T03:36:20;98847.47;;;7.96;93.84
70103;BME280;57470;50.034;15.256;2023-03-13T03:38:47;98843.94;;;7.83;94.35
70103;BME280;57470;50.034;15.256;2023-03-13T03:41:14;98841.84;;;8.01;94.09
70103;BME280;57470;50.034;15.256;2023-03-13T03:43:40;98846.19;;;8.02;93.83
70103;BME280;57470;50.034;15.256;2023-03-13T03:46:06;98842.78;;;8.00;93.64
70103;BME280;57470;50.034;15.256;2023-03-13T03:48:32;98834.94;;;7.98;94.25
70103;BME280;57470;50.034;15.256;2023-03-13T03:50:58;98834.31;;;8.07;93.89
70103;BME280;57470;50.034;15.256;2023-03-13T03:53:24;98827.78;;;8.13;93.29
70103;BME280;57470;50.034;15.256;2023-03-13T03:55:49;98827.44;;;8.17;92.88
70103;BME280;57470;50.034;15.256;2023-03-13T03:58:14;98828.63;;;8.13;92.77
70103;BME280;57470;50.034;15.256;2023-03-13T04:00:46;98832.22;;;8.25;92.45
70103;BME280;57470;50.034;15.256;2023-03-13T04:03:13;98828.09;;;8.34;91.74
70103;BME280;57470;50.034;15.256;2023-03-13T04:05:39;98817.81;;;8.29;92.13
70103;BME280;57470;50.034;15.256;2023-03-13T04:08:05;98829.91;;;8.20;92.06
70103;BME280;57470;50.034;15.256;2023-03-13T04:10:31;98829.81;;;8.35;91.85
70103;BME280;57470;50.034;15.256;2023-03-13T04:12:57;98822.50;;;8.38;91.34
70103;BME280;57470;50.034;15.256;2023-03-13T04:15:22;98822.28;;;8.41;91.09
70103;BME280;57470;50.034;15.256;2023-03-13T04:17:47;98824.16;;;8.52;90.53
70103;BME280;57470;50.034;15.256;2023-03-13T04:20:13;98819.72;;;8.52;90.13
70103;BME280;57470;50.034;15.256;2023-03-13T04:22:40;98822.91;;;8.57;90.40
70103;BME280;57470;50.034;15.256;2023-03-13T04:25:06;98824.91;;;8.54;90.07
70103;BME280;57470;50.034;15.256;2023-03-13T04:27:32;98815.03;;;8.69;89.64
70103;BME280;57470;50.034;15.256;2023-03-13T04:29:58;98818.31;;;8.59;89.98
70103;BME280;57470;50.034;15.256;2023-03-13T04:32:23;98816.81;;;8.68;89.64
70103;BME280;57470;50.034;15.256;2023-03-13T04:34:49;98814.66;;;8.49;90.58
70103;BME280;57470;50.034;15.256;2023-03-13T04:37:14;98813.56;;;8.64;90.17
70103;BME280;57470;50.034;15.256;2023-03-13T04:39:40;98802.25;;;8.50;90.71
70103;BME280;57470;50.034;15.256;2023-03-13T04:42:10;98802.78;;;8.42;91.25
70103;BME280;57470;50.034;15.256;2023-03-13T04:44:35;98806.81;;;8.35;91.59
70103;BME280;57470;50.034;15.256;2023-03-13T04:47:01;98799.41;;;8.40;91.11
70103;BME280;57470;50.034;15.256;2023-03-13T04:49:26;98791.41;;;8.53;90.40
70103;BME280;57470;50.034;15.256;2023-03-13T04:51:52;98794.06;;;8.27;91.36
70103;BME280;57470;50.034;15.256;2023-03-13T04:54:17;98790.06;;;8.09;92.55
70103;BME280;57470;50.034;15.256;2023-03-13T04:56:43;98786.25;;;8.13;92.17
70103;BME280;57470;50.034;15.256;2023-03-13T04:59:10;98790.06;;;8.09;92.20
70103;BME280;57470;50.034;15.256;2023-03-13T05:01:36;98790.91;;;8.10;91.98
70103;BME280;57470;50.034;15.256;2023-03-13T05:04:01;98784.53;;;8.00;92.81
70103;BME280;57470;50.034;15.256;2023-03-13T05:06:26;98786.25;;;8.13;92.04
70103;BME280;57470;50.034;15.256;2023-03-13T05:08:52;98779.56;;;8.08;92.29
70103;BME280;57470;50.034;15.256;2023-03-13T05:11:17;98785.50;;;8.11;92.48
70103;BME280;57470;50.034;15.256;2023-03-13T05:13:42;98775.53;;;8.15;92.70
70103;BME280;57470;50.034;15.256;2023-03-13T05:16:08;98782.84;;;8.11;92.30
70103;BME280;57470;50.034;15.256;2023-03-13T05:18:33;98772.78;;;8.16;92.26
70103;BME280;57470;50.034;15.256;2023-03-13T05:21:00;98771.50;;;8.09;92.42
70103;BME280;57470;50.034;15.256;2023-03-13T05:23:25;98771.84;;;8.05;92.69
70103;BME280;57470;50.034;15.256;2023-03-13T05:25:51;98766.09;;;7.98;93.04
70103;BME280;57470;50.034;15.256;2023-03-13T05:28:16;98768.75;;;8.11;93.03
70103;BME280;57470;50.034;15.256;2023-03-13T05:30:42;98769.94;;;7.94;93.46
70103;BME280;57470;50.034;15.256;2023-03-13T05:33:07;98767.28;;;7.94;93.66
70103;BME280;57470;50.034;15.256;2023-03-13T05:35:32;98773.53;;;7.93;94.03
70103;BME280;57470;50.034;15.256;2023-03-13T05:37:58;98766.09;;;7.98;93.83
70103;BME280;57470;50.034;15.256;2023-03-13T05:40:23;98760.94;;;7.84;94.02
70103;BME280;57470;50.034;15.256;2023-03-13T05:42:49;98764.63;;;7.81;94.69
70103;BME280;57470;50.034;15.256;2023-03-13T05:45:14;98763.38;;;7.87;94.26
70103;BME280;57470;50.034;15.256;2023-03-13T05:47:40;98757.53;;;7.95;94.05
70103;BME280;57470;50.034;15.256;2023-03-13T05:50:06;98755.31;;;8.01;94.00
70103;BME280;57470;50.034;15.256;2023-03-13T05:52:32;98760.59;;;8.01;93.38
70103;BME280;57470;50.034;15.256;2023-03-13T05:54:57;98762.00;;;7.94;93.87
70103;BME280;57470;50.034;15.256;2023-03-13T05:57:23;98762.06;;;8.05;92.90
70103;BME280;57470;50.034;15.256;2023-03-13T05:59:48;98763.06;;;8.04;93.08
70103;BME280;57470;50.034;15.256;2023-03-13T06:02:14;98748.72;;;8.07;92.89
70103;BME280;57470;50.034;15.256;2023-03-13T06:04:39;98743.31;;;8.08;92.61
70103;BME280;57470;50.034;15.256;2023-03-13T06:07:05;98746.31;;;8.04;93.04
70103;BME280;57470;50.034;15.256;2023-03-13T06:09:30;98747.38;;;8.01;93.32
70103;BME280;57470;50.034;15.256;2023-03-13T06:11:56;98749.56;;;8.07;93.53
70103;BME280;57470;50.034;15.256;2023-03-13T06:14:21;98750.03;;;8.14;93.05
70103;BME280;57470;50.034;15.256;2023-03-13T06:16:47;98749.78;;;8.17;92.96
70103;BME280;57470;50.034;15.256;2023-03-13T06:19:12;98732.50;;;8.37;91.64
70103;BME280;57470;50.034;15.256;2023-03-13T06:21:38;98729.13;;;8.35;92.15
70103;BME280;57470;50.034;15.256;2023-03-13T06:24:04;98729.66;;;8.40;91.68
70103;BME280;57470;50.034;15.256;2023-03-13T06:26:29;98724.00;;;8.57;90.86
70103;BME280;57470;50.034;15.256;2023-03-13T06:28:55;98716.56;;;9.10;89.14
70103;BME280;57470;50.034;15.256;2023-03-13T06:31:20;98720.16;;;8.61;90.12
70103;BME280;57470;50.034;15.256;2023-03-13T06:33:46;98720.69;;;8.66;90.57
70103;BME280;57470;50.034;15.256;2023-03-13T06:36:11;98721.06;;;8.49;90.61
70103;BME280;57470;50.034;15.256;2023-03-13T06:38:37;98715.28;;;8.55;90.83
70103;BME280;57470;50.034;15.256;2023-03-13T06:41:02;98718.97;;;8.65;90.18
70103;BME280;57470;50.034;15.256;2023-03-13T06:43:28;98716.31;;;8.65;89.78
70103;BME280;57470;50.034;15.256;2023-03-13T06:45:54;98712.75;;;8.77;89.75
70103;BME280;57470;50.034;15.256;2023-03-13T06:48:20;98710.97;;;9.01;89.03
70103;BME280;57470;50.034;15.256;2023-03-13T06:50:47;98713.78;;;8.87;89.32
70103;BME280;57470;50.034;15.256;2023-03-13T06:53:18;98712.88;;;8.99;88.89
70103;BME280;57470;50.034;15.256;2023-03-13T06:55:44;98707.81;;;8.96;88.80
70103;BME280;57470;50.034;15.256;2023-03-13T06:58:09;98697.19;;;8.96;88.56
70103;BME280;57470;50.034;15.256;2023-03-13T07:00:35;98710.19;;;8.88;88.71
70103;BME280;57470;50.034;15.256;2023-03-13T07:03:01;98711.94;;;9.00;89.38
70103;BME280;57470;50.034;15.256;2023-03-13T07:05:26;98720.34;;;8.94;88.70
70103;BME280;57470;50.034;15.256;2023-03-13T07:07:51;98717.72;;;9.06;89.06
70103;BME280;57470;50.034;15.256;2023-03-13T07:10:17;98718.41;;;8.96;89.47
70103;BME280;57470;50.034;15.256;2023-03-13T07:12:42;98719.41;;;9.07;89.06
70103;BME280;57470;50.034;15.256;2023-03-13T07:15:09;98706.91;;;9.09;88.77
70103;BME280;57470;50.034;15.256;2023-03-13T07:17:35;98698.19;;;9.07;88.68
70103;BME280;57470;50.034;15.256;2023-03-13T07:20:01;98698.94;;;9.09;89.46
70103;BME280;57470;50.034;15.256;2023-03-13T07:22:26;98705.16;;;9.20;89.15
70103;BME280;57470;50.034;15.256;2023-03-13T07:24:51;98699.00;;;9.20;89.01
70103;BME280;57470;50.034;15.256;2023-03-13T07:27:17;98699.84;;;9.20;88.69
70103;BME280;57470;50.034;15.256;2023-03-13T07:29:45;98698.03;;;9.21;88.51
70103;BME280;57470;50.034;15.256;2023-03-13T07:32:10;98687.16;;;9.24;88.57
70103;BME280;57470;50.034;15.256;2023-03-13T07:34:37;98682.75;;;9.35;88.09
70103;BME280;57470;50.034;15.256;2023-03-13T07:37:04;98682.03;;;9.45;87.81
70103;BME280;57470;50.034;15.256;2023-03-13T07:39:34;98685.19;;;9.50;87.73
70103;BME280;57470;50.034;15.256;2023-03-13T07:42:01;98693.78;;;9.53;87.11
70103;BME280;57470;50.034;15.256;2023-03-13T07:44:28;98691.38;;;9.72;86.68
70103;BME280;57470;50.034;15.256;2023-03-13T07:46:57;98691.50;;;9.71;86.44
70103;BME280;57470;50.034;15.256;2023-03-13T07:49:24;98689.59;;;9.73;86.84
70103;BME280;57470;50.034;15.256;2023-03-13T07:51:50;98685.00;;;9.75;86.11
70103;BME280;57470;50.034;15.256;2023-03-13T07:54:16;98682.69;;;9.70;86.10
70103;BME280;57470;50.034;15.256;2023-03-13T07:56:41;98676.16;;;9.63;86.64
70103;BME280;57470;50.034;15.256;2023-03-13T07:59:07;98672.81;;;9.72;86.36
70103;BME280;57470;50.034;15.256;2023-03-13T08:01:32;98665.69;;;9.73;86.11
70103;BME280;57470;50.034;15.256;2023-03-13T08:03:58;98661.19;;;9.85;85.67
70103;BME280;57470;50.034;15.256;2023-03-13T08:06:29;98661.09;;;9.86;86.64
70103;BME280;57470;50.034;15.256;2023-03-13T08:08:58;98649.28;;;9.90;85.78
70103;BME280;57470;50.034;15.256;2023-03-13T08:11:25;98642.28;;;10.00;85.90
70103;BME280;57470;50.034;15.256;2023-03-13T08:13:52;98639.22;;;9.94;86.15
70103;BME280;57470;50.034;15.256;2023-03-13T08:16:20;98618.94;;;10.15;85.40
70103;BME280;57470;50.034;15.256;2023-03-13T08:18:49;98628.25;;;10.09;85.89
70103;BME280;57470;50.034;15.256;2023-03-13T08:21:20;98632.94;;;9.95;86.21
70103;BME280;57470;50.034;15.256;2023-03-13T08:23:46;98621.00;;;10.00;86.20
70103;BME280;57470;50.034;15.256;2023-03-13T08:26:17;98617.75;;;10.08;85.75
70103;BME280;57470;50.034;15.256;2023-03-13T08:28:44;98613.63;;;10.15;86.48
70103;BME280;57470;50.034;15.256;2023-03-13T08:31:12;98606.63;;;10.25;86.90
70103;BME280;57470;50.034;15.256;2023-03-13T08:33:39;98595.38;;;10.33;88.85
70103;BME280;57470;50.034;15.256;2023-03-13T08:38:41;98588.38;;;10.32;90.28
70103;BME280;57470;50.034;15.256;2023-03-13T08:41:08;98585.63;;;9.89;91.97
70103;BME280;57470;50.034;15.256;2023-03-13T08:43:34;98586.84;;;9.85;92.80
70103;BME280;57470;50.034;15.256;2023-03-13T08:45:59;98574.06;;;9.78;92.71
70103;BME280;57470;50.034;15.256;2023-03-13T08:48:25;98569.97;;;9.74;93.32
70103;BME280;57470;50.034;15.256;2023-03-13T08:51:10;98569.25;;;9.72;93.25
70103;BME280;57470;50.034;15.256;2023-03-13T08:53:37;98568.34;;;9.94;92.42
70103;BME280;57470;50.034;15.256;2023-03-13T08:56:03;98566.81;;;9.81;92.30
70103;BME280;57470;50.034;15.256;2023-03-13T08:58:30;98557.78;;;9.83;91.94
70103;BME280;57470;50.034;15.256;2023-03-13T09:01:09;98564.16;;;9.81;92.60
70103;BME280;57470;50.034;15.256;2023-03-13T09:03:35;98559.09;;;9.89;93.00
70103;BME280;57470;50.034;15.256;2023-03-13T09:06:01;98552.63;;;10.13;91.14
70103;BME280;57470;50.034;15.256;2023-03-13T09:08:27;98556.53;;;9.98;91.44
70103;BME280;57470;50.034;15.256;2023-03-13T09:11:00;98551.84;;;9.91;92.29
70103;BME280;57470;50.034;15.256;2023-03-13T09:13:28;98541.66;;;10.07;91.06
70103;BME280;57470;50.034;15.256;2023-03-13T09:15:58;98535.25;;;10.09;91.29
70103;BME280;57470;50.034;15.256;2023-03-13T09:18:24;98538.28;;;10.05;90.59
70103;BME280;57470;50.034;15.256;2023-03-13T09:20:51;98542.25;;;10.10;91.02
70103;BME280;57470;50.034;15.256;2023-03-13T09:23:17;98538.03;;;10.19;90.14
70103;BME280;57470;50.034;15.256;2023-03-13T09:25:42;98534.16;;;10.23;89.67
70103;BME280;57470;50.034;15.256;2023-03-13T09:28:08;98533.44;;;10.21;89.28
70103;BME280;57470;50.034;15.256;2023-03-13T09:30:34;98533.78;;;10.28;89.95
70103;BME280;57470;50.034;15.256;2023-03-13T09:32:59;98533.16;;;10.35;89.80
70103;BME280;57470;50.034;15.256;2023-03-13T09:35:24;98529.91;;;10.32;89.68
70103;BME280;57470;50.034;15.256;2023-03-13T09:37:50;98526.16;;;10.34;89.07
70103;BME280;57470;50.034;15.256;2023-03-13T09:40:18;98526.69;;;10.49;89.23
70103;BME280;57470;50.034;15.256;2023-03-13T09:42:49;98532.59;;;10.52;90.29
70103;BME280;57470;50.034;15.256;2023-03-13T09:45:20;98530.91;;;10.51;90.38
70103;BME280;57470;50.034;15.256;2023-03-13T09:47:54;98532.47;;;10.54;90.58
70103;BME280;57470;50.034;15.256;2023-03-13T09:50:32;98534.66;;;10.49;91.68
70103;BME280;57470;50.034;15.256;2023-03-13T09:53:14;98540.78;;;10.61;91.10
70103;BME280;57470;50.034;15.256;2023-03-13T09:55:41;98530.66;;;10.55;90.44
70103;BME280;57470;50.034;15.256;2023-03-13T09:58:21;98533.56;;;10.51;90.63
70103;BME280;57470;50.034;15.256;2023-03-13T10:00:59;98527.16;;;10.54;89.63
70103;BME280;57470;50.034;15.256;2023-03-13T10:03:29;98523.19;;;10.69;88.94
70103;BME280;57470;50.034;15.256;2023-03-13T10:06:03;98525.28;;;10.86;88.38
70103;BME280;57470;50.034;15.256;2023-03-13T10:08:35;98527.63;;;10.80;88.26
70103;BME280;57470;50.034;15.256;2023-03-13T10:13:50;98515.16;;;10.80;89.65
70103;BME280;57470;50.034;15.256;2023-03-13T10:16:26;98513.00;;;10.74;89.48
70103;BME280;57470;50.034;15.256;2023-03-13T10:18:55;98510.22;;;10.76;89.31
70103;BME280;57470;50.034;15.256;2023-03-13T10:21:25;98497.09;;;11.05;88.37
70103;BME280;57470;50.034;15.256;2023-03-13T10:26:43;98503.19;;;11.16;90.11
70103;BME280;57470;50.034;15.256;2023-03-13T10:29:21;98497.59;;;11.19;87.45
70103;BME280;57470;50.034;15.256;2023-03-13T10:32:08;98497.59;;;11.50;84.22
70103;BME280;57470;50.034;15.256;2023-03-13T10:34:55;98500.63;;;11.36;85.19
70103;BME280;57470;50.034;15.256;2023-03-13T10:37:42;98490.03;;;11.55;84.23
70103;BME280;57470;50.034;15.256;2023-03-13T10:40:12;98493.25;;;11.49;84.32
70103;BME280;57470;50.034;15.256;2023-03-13T10:42:43;98488.31;;;11.84;83.80
70103;BME280;57470;50.034;15.256;2023-03-13T10:45:14;98481.06;;;11.86;82.34
70103;BME280;57470;50.034;15.256;2023-03-13T10:47:40;98484.41;;;11.79;82.81
70103;BME280;57470;50.034;15.256;2023-03-13T10:50:05;98487.94;;;11.89;81.83
70103;BME280;57470;50.034;15.256;2023-03-13T10:52:42;98476.00;;;11.93;82.23
70103;BME280;57470;50.034;15.256;2023-03-13T10:55:15;98484.47;;;12.08;81.59
70103;BME280;57470;50.034;15.256;2023-03-13T10:57:42;98473.66;;;12.38;81.37
70103;BME280;57470;50.034;15.256;2023-03-13T11:00:38;98451.47;;;12.57;81.63
70103;BME280;57470;50.034;15.256;2023-03-13T11:03:19;98451.72;;;12.63;79.74
70103;BME280;57470;50.034;15.256;2023-03-13T11:05:55;98459.56;;;12.84;80.09
70103;BME280;57470;50.034;15.256;2023-03-13T11:08:24;98449.91;;;12.54;78.94
70103;BME280;57470;50.034;15.256;2023-03-13T11:13:27;98445.72;;;12.61;80.45
70103;BME280;57470;50.034;15.256;2023-03-13T11:15:57;98430.91;;;12.86;78.75
70103;BME280;57470;50.034;15.256;2023-03-13T11:21:00;98449.03;;;12.83;78.16
70103;BME280;57470;50.034;15.256;2023-03-13T11:23:33;98443.84;;;12.71;78.07
70103;BME280;57470;50.034;15.256;2023-03-13T11:26:13;98434.53;;;12.95;78.14
70103;BME280;57470;50.034;15.256;2023-03-13T11:31:38;98452.75;;;12.99;79.61
70103;BME280;57470;50.034;15.256;2023-03-13T11:39:42;98434.88;;;12.63;79.24
70103;BME280;57470;50.034;15.256;2023-03-13T11:47:23;98419.41;;;12.76;79.39
70103;BME280;57470;50.034;15.256;2023-03-13T11:50:11;98419.44;;;12.66;80.36
70103;BME280;57470;50.034;15.256;2023-03-13T11:55:48;98402.47;;;13.04;79.41
70103;BME280;57470;50.034;15.256;2023-03-13T11:58:31;98407.81;;;13.04;79.16
70103;BME280;57470;50.034;15.256;2023-03-13T12:01:35;98405.00;;;13.33;79.59
70103;BME280;57470;50.034;15.256;2023-03-13T12:04:22;98391.19;;;13.47;79.93
70103;BME280;57470;50.034;15.256;2023-03-13T12:06:54;98384.13;;;13.74;77.86
70103;BME280;57470;50.034;15.256;2023-03-13T12:09:33;98387.84;;;13.81;78.36
70103;BME280;57470;50.034;15.256;2023-03-13T12:12:14;98386.44;;;13.86;78.45
70103;BME280;57470;50.034;15.256;2023-03-13T12:17:36;98380.44;;;14.10;77.08
70103;BME280;57470;50.034;15.256;2023-03-13T12:20:07;98373.19;;;14.20;75.78
70103;BME280;57470;50.034;15.256;2023-03-13T12:22:41;98359.88;;;14.46;76.22
70103;BME280;57470;50.034;15.256;2023-03-13T12:25:36;98360.06;;;14.53;75.69
70103;BME280;57470;50.034;15.256;2023-03-13T12:31:18;98338.84;;;14.34;76.87
70103;BME280;57470;50.034;15.256;2023-03-13T12:34:08;98341.25;;;14.62;77.24
70103;BME280;57470;50.034;15.256;2023-03-13T12:36:47;98343.50;;;14.32;76.53
70103;BME280;57470;50.034;15.256;2023-03-13T12:39:24;98358.88;;;14.73;75.11
70103;BME280;57470;50.034;15.256;2023-03-13T12:44:44;98353.78;;;14.62;75.90
70103;BME280;57470;50.034;15.256;2023-03-13T12:47:23;98352.56;;;14.82;75.74
70103;BME280;57470;50.034;15.256;2023-03-13T12:50:10;98355.50;;;14.71;76.59
70103;BME280;57470;50.034;15.256;2023-03-13T12:58:25;98350.69;;;14.75;77.64
70103;BME280;57470;50.034;15.256;2023-03-13T13:00:54;98347.88;;;14.58;77.93
70103;BME280;57470;50.034;15.256;2023-03-13T13:06:13;98342.53;;;14.84;78.94
70103;BME280;57470;50.034;15.256;2023-03-13T13:08:41;98346.19;;;14.75;79.24
70103;BME280;57470;50.034;15.256;2023-03-13T13:16:57;98327.25;;;15.02;78.20
70103;BME280;57470;50.034;15.256;2023-03-13T13:25:00;98315.44;;;14.87;79.59
70103;BME280;57470;50.034;15.256;2023-03-13T13:27:27;98322.53;;;15.05;78.14
70103;BME280;57470;50.034;15.256;2023-03-13T13:33:32;98335.28;;;14.77;78.94
70103;BME280;57470;50.034;15.256;2023-03-13T13:35:39;98335.03;;;14.62;79.72
70103;BME280;57470;50.034;15.256;2023-03-13T13:43:30;98315.94;;;14.83;79.72
70103;BME280;57470;50.034;15.256;2023-03-13T13:48:37;98327.25;;;15.02;78.76
70103;BME280;57470;50.034;15.256;2023-03-13T13:53:56;98314.75;;;15.19;78.75
70103;BME280;57470;50.034;15.256;2023-03-13T14:01:41;98326.63;;;15.17;79.28
70103;BME280;57470;50.034;15.256;2023-03-13T14:06:44;98313.25;;;15.33;78.24
70103;BME280;57470;50.034;15.256;2023-03-13T14:10:18;98324.34;;;15.38;78.20
70103;BME280;57470;50.034;15.256;2023-03-13T14:15:13;98331.88;;;15.43;77.68
70103;BME280;57470;50.034;15.256;2023-03-13T14:17:45;98338.41;;;15.40;77.92
70103;BME280;57470;50.034;15.256;2023-03-13T14:20:22;98341.72;;;15.26;79.19
70103;BME280;57470;50.034;15.256;2023-03-13T14:22:49;98333.63;;;15.10;79.54
70103;BME280;57470;50.034;15.256;2023-03-13T14:25:15;98339.19;;;14.82;79.64
70103;BME280;57470;50.034;15.256;2023-03-13T14:27:46;98334.28;;;14.78;79.85
70103;BME280;57470;50.034;15.256;2023-03-13T14:30:14;98336.03;;;14.61;80.61
70103;BME280;57470;50.034;15.256;2023-03-13T14:32:40;98335.63;;;14.74;80.36
70103;BME280;57470;50.034;15.256;2023-03-13T14:35:08;98328.50;;;14.90;80.00
70103;BME280;57470;50.034;15.256;2023-03-13T14:37:40;98327.19;;;14.94;79.28